Time,TemperatureF,DewpointF,PressureIn,WindDirection,WindDirectionDegrees,WindSpeedMPH,WindSpeedGustMPH,Humidity,HourlyPrecipIn,Conditions,Clouds,dailyrainin,SoftwareType,DateUTC
2013-02-11 00:00:00,49.2,47.8,29.92,South,176,1.0,8.0,95,0.03,,---,0.00,VWS V14.00,2013-02-11 05:00:00,
2013-02-11 00:03:00,49.1,47.7,29.92,SW,226,0.0,1.0,95,0.02,,---,0.00,VWS V14.00,2013-02-11 05:03:00,
2013-02-11 00:06:00,49.0,47.9,29.92,SSW,201,0.0,2.0,96,0.02,,---,0.00,VWS V14.00,2013-02-11 05:06:00,
2013-02-11 00:09:00,48.9,47.5,29.92,WSW,240,0.0,5.0,95,0.02,,---,0.00,VWS V14.00,2013-02-11 05:09:00,
2013-02-11 00:12:00,48.8,47.7,29.92,SW,233,0.0,5.0,96,0.02,,---,0.00,VWS V14.00,2013-02-11 05:12:00,
2013-02-11 00:15:00,48.7,47.6,29.92,SW,233,0.0,5.0,96,0.02,,---,0.00,VWS V14.00,2013-02-11 05:15:00,
2013-02-11 00:18:00,48.6,47.5,29.92,SSE,155,0.0,5.0,96,0.02,,---,0.00,VWS V14.00,2013-02-11 05:18:00,
2013-02-11 00:21:00,48.6,47.5,29.92,SSE,163,0.0,5.0,96,0.02,,---,0.00,VWS V14.00,2013-02-11 05:21:00,
2013-02-11 00:24:00,48.6,47.5,29.91,SSW,210,2.0,6.0,96,0.02,,---,0.00,VWS V14.00,2013-02-11 05:24:00,
2013-02-11 00:27:00,48.5,47.4,29.91,West,264,0.0,6.0,96,0.02,,---,0.00,VWS V14.00,2013-02-11 05:27:00,
2013-02-11 00:30:00,48.4,47.3,29.91,West,278,1.0,6.0,96,0.03,,---,0.01,VWS V14.00,2013-02-11 05:30:00,
2013-02-11 00:33:00,48.4,47.3,29.91,West,274,0.0,1.0,96,0.02,,---,0.01,VWS V14.00,2013-02-11 05:33:00,
2013-02-11 00:36:00,48.3,47.2,29.90,WNW,284,0.0,1.0,96,0.02,,---,0.01,VWS V14.00,2013-02-11 05:36:00,
2013-02-11 00:39:00,48.3,47.5,29.90,SW,224,0.0,1.0,97,0.03,,---,0.02,VWS V14.00,2013-02-11 05:39:00,
2013-02-11 00:42:00,48.3,47.5,29.90,SW,231,0.0,1.0,97,0.03,,---,0.02,VWS V14.00,2013-02-11 05:42:00,
2013-02-11 00:45:00,48.3,47.5,29.90,WNW,288,0.0,2.0,97,0.04,,---,0.03,VWS V14.00,2013-02-11 05:45:00,
2013-02-11 00:49:00,48.3,47.5,29.90,West,281,0.0,2.0,97,0.04,,---,0.03,VWS V14.00,2013-02-11 05:49:00,
2013-02-11 00:52:00,48.3,47.5,29.90,WNW,283,0.0,2.0,97,0.04,,---,0.03,VWS V14.00,2013-02-11 05:52:00,
2013-02-11 00:55:00,48.3,47.5,29.90,SSW,200,0.0,2.0,97,0.05,,---,0.04,VWS V14.00,2013-02-11 05:55:00,
2013-02-11 00:58:00,48.3,47.5,29.91,WSW,240,0.0,2.0,97,0.06,,---,0.05,VWS V14.00,2013-02-11 05:58:00,
2013-02-11 01:00:00,48.3,47.5,29.90,SSE,165,0.0,2.0,97,0.06,,---,0.05,VWS V14.00,2013-02-11 06:00:00,
2013-02-11 01:01:00,48.3,47.5,29.90,SSW,212,3.0,3.0,97,0.05,,---,0.05,VWS V14.00,2013-02-11 06:01:00,
2013-02-11 01:04:00,48.3,47.5,29.90,SW,226,0.0,3.0,97,0.05,,---,0.05,VWS V14.00,2013-02-11 06:04:00,
2013-02-11 01:07:00,48.3,47.5,29.90,SW,219,0.0,3.0,97,0.05,,---,0.05,VWS V14.00,2013-02-11 06:07:00,
2013-02-11 01:10:00,48.3,47.5,29.90,SSW,205,3.0,4.0,97,0.06,,---,0.06,VWS V14.00,2013-02-11 06:10:00,
2013-02-11 01:13:00,48.3,47.5,29.90,SW,229,2.0,5.0,97,0.06,,---,0.06,VWS V14.00,2013-02-11 06:13:00,
2013-02-11 01:16:00,48.4,47.6,29.90,SW,233,0.0,5.0,97,0.07,,---,0.07,VWS V14.00,2013-02-11 06:16:00,
2013-02-11 01:19:00,48.4,47.6,29.90,SSW,212,5.0,6.0,97,0.07,,---,0.07,VWS V14.00,2013-02-11 06:19:00,
2013-02-11 01:22:00,48.6,47.8,29.90,South,181,3.0,6.0,97,0.08,,---,0.08,VWS V14.00,2013-02-11 06:22:00,
2013-02-11 01:25:00,48.6,47.8,29.90,WNW,287,2.0,6.0,97,0.09,,---,0.09,VWS V14.00,2013-02-11 06:25:00,
2013-02-11 01:28:00,48.6,47.8,29.90,South,172,2.0,6.0,97,0.10,,---,0.10,VWS V14.00,2013-02-11 06:28:00,
2013-02-11 01:30:00,48.6,47.8,29.89,SW,224,2.0,6.0,97,0.10,,---,0.10,VWS V14.00,2013-02-11 06:30:00,
2013-02-11 01:31:00,48.6,47.8,29.89,SW,221,1.0,2.0,97,0.09,,---,0.10,VWS V14.00,2013-02-11 06:31:00,
2013-02-11 01:34:00,48.6,47.8,29.89,SSW,205,3.0,3.0,97,0.10,,---,0.11,VWS V14.00,2013-02-11 06:34:00,
2013-02-11 01:37:00,48.6,47.8,29.89,SW,215,4.0,7.0,97,0.10,,---,0.11,VWS V14.00,2013-02-11 06:37:00,
2013-02-11 01:40:00,48.6,47.8,29.88,SSW,201,1.0,7.0,97,0.10,,---,0.11,VWS V14.00,2013-02-11 06:40:00,
2013-02-11 01:43:00,48.6,47.8,29.88,SSW,195,3.0,7.0,97,0.11,,---,0.12,VWS V14.00,2013-02-11 06:43:00,
2013-02-11 01:46:00,48.5,47.7,29.88,West,266,1.0,7.0,97,0.12,,---,0.13,VWS V14.00,2013-02-11 06:46:00,
2013-02-11 01:49:00,48.5,47.7,29.88,SW,232,2.0,7.0,97,0.12,,---,0.13,VWS V14.00,2013-02-11 06:49:00,
2013-02-11 01:52:00,48.5,47.7,29.88,SSW,207,1.0,7.0,97,0.12,,---,0.13,VWS V14.00,2013-02-11 06:52:00,
2013-02-11 01:55:00,48.5,47.7,29.88,WSW,243,1.0,7.0,97,0.13,,---,0.14,VWS V14.00,2013-02-11 06:55:00,
2013-02-11 01:58:00,48.5,47.7,29.88,West,270,1.0,7.0,97,0.13,,---,0.14,VWS V14.00,2013-02-11 06:58:00,
2013-02-11 02:00:00,48.5,47.7,29.88,SW,221,0.0,7.0,97,0.13,,---,0.14,VWS V14.00,2013-02-11 07:00:00,
2013-02-11 02:01:00,48.5,47.7,29.87,West,260,0.0,1.0,97,0.09,,---,0.14,VWS V14.00,2013-02-11 07:01:00,
2013-02-11 02:04:00,48.5,47.7,29.87,SW,226,4.0,4.0,97,0.09,,---,0.14,VWS V14.00,2013-02-11 07:04:00,
2013-02-11 02:07:00,48.5,47.7,29.87,West,271,0.0,4.0,97,0.09,,---,0.14,VWS V14.00,2013-02-11 07:07:00,
2013-02-11 02:10:00,48.5,47.7,29.87,West,278,2.0,4.0,97,0.09,,---,0.14,VWS V14.00,2013-02-11 07:10:00,
2013-02-11 02:13:00,48.6,47.8,29.87,SW,224,1.0,4.0,97,0.09,,---,0.14,VWS V14.00,2013-02-11 07:13:00,
2013-02-11 02:16:00,48.7,47.9,29.86,SW,222,3.0,4.0,97,0.09,,---,0.14,VWS V14.00,2013-02-11 07:16:00,
2013-02-11 02:19:00,48.7,47.9,29.86,WSW,257,2.0,4.0,97,0.09,,---,0.14,VWS V14.00,2013-02-11 07:19:00,
2013-02-11 02:22:00,48.7,47.9,29.86,WSW,255,2.0,4.0,97,0.09,,---,0.14,VWS V14.00,2013-02-11 07:22:00,
2013-02-11 02:25:00,48.7,47.9,29.85,SW,217,3.0,4.0,97,0.09,,---,0.14,VWS V14.00,2013-02-11 07:25:00,
2013-02-11 02:28:00,48.8,48.0,29.85,SW,221,2.0,4.0,97,0.09,,---,0.14,VWS V14.00,2013-02-11 07:28:00,
2013-02-11 02:30:00,48.8,48.0,29.85,WNW,297,3.0,4.0,97,0.09,,---,0.14,VWS V14.00,2013-02-11 07:30:00,
2013-02-11 02:31:00,48.8,48.0,29.85,West,281,1.0,3.0,97,0.04,,---,0.14,VWS V14.00,2013-02-11 07:31:00,
2013-02-11 02:34:00,48.8,48.0,29.85,WSW,238,0.0,4.0,97,0.04,,---,0.14,VWS V14.00,2013-02-11 07:34:00,
2013-02-11 02:37:00,48.8,48.0,29.86,SSE,166,0.0,4.0,97,0.04,,---,0.14,VWS V14.00,2013-02-11 07:37:00,
2013-02-11 02:40:00,48.9,48.1,29.87,WSW,255,0.0,5.0,97,0.04,,---,0.14,VWS V14.00,2013-02-11 07:40:00,
2013-02-11 02:43:00,48.9,48.1,29.87,West,263,0.0,5.0,97,0.04,,---,0.14,VWS V14.00,2013-02-11 07:43:00,
2013-02-11 02:46:00,48.9,48.1,29.87,West,263,0.0,5.0,97,0.04,,---,0.14,VWS V14.00,2013-02-11 07:46:00,
2013-02-11 02:49:00,48.9,48.1,29.87,SSW,197,0.0,5.0,97,0.04,,---,0.14,VWS V14.00,2013-02-11 07:49:00,
2013-02-11 02:52:00,48.6,47.8,29.86,ESE,123,0.0,5.0,97,0.04,,---,0.14,VWS V14.00,2013-02-11 07:52:00,
2013-02-11 02:55:00,47.8,47.0,29.87,ESE,122,0.0,5.0,97,0.04,,---,0.14,VWS V14.00,2013-02-11 07:55:00,
2013-02-11 02:58:00,47.8,47.0,29.86,ESE,122,0.0,5.0,97,0.04,,---,0.14,VWS V14.00,2013-02-11 07:58:00,
2013-02-11 03:00:00,47.8,47.0,29.86,ESE,122,0.0,5.0,97,0.04,,---,0.14,VWS V14.00,2013-02-11 08:00:00,
2013-02-11 03:01:00,47.8,47.0,29.86,ESE,122,0.0,0.0,97,0.00,,---,0.14,VWS V14.00,2013-02-11 08:01:00,
2013-02-11 03:04:00,47.8,47.0,29.86,ESE,122,0.0,0.0,97,0.00,,---,0.14,VWS V14.00,2013-02-11 08:04:00,
2013-02-11 03:07:00,47.8,47.0,29.85,ESE,122,0.0,0.0,97,0.00,,---,0.14,VWS V14.00,2013-02-11 08:07:00,
2013-02-11 03:10:00,47.8,47.0,29.84,ESE,122,0.0,0.0,97,0.00,,---,0.14,VWS V14.00,2013-02-11 08:10:00,
2013-02-11 03:13:00,47.8,47.0,29.85,ESE,122,0.0,0.0,97,0.00,,---,0.14,VWS V14.00,2013-02-11 08:13:00,
2013-02-11 03:16:00,47.8,47.0,29.85,ESE,122,0.0,0.0,97,0.00,,---,0.14,VWS V14.00,2013-02-11 08:16:00,
2013-02-11 03:19:00,47.8,47.0,29.86,ESE,122,0.0,0.0,97,0.00,,---,0.14,VWS V14.00,2013-02-11 08:19:00,
2013-02-11 03:22:00,47.8,47.0,29.86,ESE,122,0.0,0.0,97,0.00,,---,0.14,VWS V14.00,2013-02-11 08:22:00,
2013-02-11 03:25:00,47.8,47.0,29.85,ESE,122,0.0,0.0,97,0.00,,---,0.14,VWS V14.00,2013-02-11 08:25:00,
2013-02-11 03:28:00,47.8,47.0,29.84,ESE,122,0.0,0.0,97,0.00,,---,0.14,VWS V14.00,2013-02-11 08:28:00,
2013-02-11 03:30:00,47.8,47.0,29.84,ESE,122,0.0,0.0,97,0.00,,---,0.14,VWS V14.00,2013-02-11 08:30:00,
2013-02-11 03:31:00,47.8,47.0,29.84,ESE,122,0.0,0.0,97,0.00,,---,0.14,VWS V14.00,2013-02-11 08:31:00,
2013-02-11 03:34:00,47.8,47.0,29.85,ESE,122,0.0,0.0,97,0.00,,---,0.14,VWS V14.00,2013-02-11 08:34:00,
2013-02-11 03:37:00,47.8,47.0,29.85,ESE,122,0.0,0.0,97,0.00,,---,0.14,VWS V14.00,2013-02-11 08:37:00,
2013-02-11 03:40:00,47.8,47.0,29.85,ESE,122,0.0,0.0,97,0.00,,---,0.14,VWS V14.00,2013-02-11 08:40:00,
2013-02-11 03:43:00,47.8,47.0,29.85,ESE,122,0.0,0.0,97,0.00,,---,0.14,VWS V14.00,2013-02-11 08:43:00,
2013-02-11 03:46:00,47.8,47.0,29.85,ESE,122,0.0,0.0,97,0.00,,---,0.14,VWS V14.00,2013-02-11 08:46:00,
2013-02-11 03:49:00,47.8,47.0,29.85,ESE,122,0.0,0.0,97,0.00,,---,0.14,VWS V14.00,2013-02-11 08:49:00,
2013-02-11 03:52:00,47.8,47.0,29.86,ESE,122,0.0,0.0,97,0.00,,---,0.14,VWS V14.00,2013-02-11 08:52:00,
2013-02-11 03:55:00,47.8,47.0,29.86,ESE,122,0.0,0.0,97,0.00,,---,0.14,VWS V14.00,2013-02-11 08:55:00,
2013-02-11 03:58:00,47.8,47.0,29.85,ESE,122,0.0,0.0,97,0.00,,---,0.14,VWS V14.00,2013-02-11 08:58:00,
2013-02-11 04:00:00,47.8,47.0,29.86,ESE,122,0.0,0.0,97,0.00,,---,0.14,VWS V14.00,2013-02-11 09:00:00,
2013-02-11 04:01:00,47.8,47.0,29.85,ESE,122,0.0,0.0,97,0.00,,---,0.14,VWS V14.00,2013-02-11 09:01:00,
2013-02-11 04:04:00,47.8,47.0,29.85,ESE,122,0.0,0.0,97,0.00,,---,0.14,VWS V14.00,2013-02-11 09:04:00,
2013-02-11 04:07:00,47.8,47.0,29.86,ESE,122,0.0,0.0,97,0.00,,---,0.14,VWS V14.00,2013-02-11 09:07:00,
2013-02-11 04:10:00,47.8,47.0,29.86,ESE,122,0.0,0.0,97,0.00,,---,0.14,VWS V14.00,2013-02-11 09:10:00,
2013-02-11 04:13:00,47.8,47.0,29.86,ESE,122,0.0,0.0,97,0.00,,---,0.14,VWS V14.00,2013-02-11 09:13:00,
2013-02-11 04:16:00,47.8,47.0,29.86,ESE,122,0.0,0.0,97,0.00,,---,0.14,VWS V14.00,2013-02-11 09:16:00,
2013-02-11 04:19:00,47.8,47.0,29.86,ESE,122,0.0,0.0,97,0.00,,---,0.14,VWS V14.00,2013-02-11 09:19:00,
2013-02-11 04:22:00,47.8,47.0,29.85,ESE,122,0.0,0.0,97,0.00,,---,0.14,VWS V14.00,2013-02-11 09:22:00,
2013-02-11 04:25:00,47.8,47.0,29.85,ESE,122,0.0,0.0,97,0.00,,---,0.14,VWS V14.00,2013-02-11 09:25:00,
2013-02-11 04:28:00,47.8,47.0,29.85,ESE,122,0.0,0.0,97,0.00,,---,0.14,VWS V14.00,2013-02-11 09:28:00,
2013-02-11 04:30:00,47.8,47.0,29.85,ESE,122,0.0,0.0,97,0.00,,---,0.14,VWS V14.00,2013-02-11 09:30:00,
2013-02-11 04:31:00,47.8,47.0,29.85,ESE,122,0.0,0.0,97,0.00,,---,0.14,VWS V14.00,2013-02-11 09:31:00,
2013-02-11 04:34:00,47.8,47.0,29.85,ESE,122,0.0,0.0,97,0.00,,---,0.14,VWS V14.00,2013-02-11 09:34:00,
2013-02-11 04:37:00,47.8,47.0,29.85,ESE,122,0.0,0.0,97,0.00,,---,0.14,VWS V14.00,2013-02-11 09:37:00,
2013-02-11 04:40:00,47.8,47.0,29.85,ESE,122,0.0,0.0,97,0.00,,---,0.14,VWS V14.00,2013-02-11 09:40:00,
2013-02-11 04:43:00,47.8,47.0,29.85,ESE,122,0.0,0.0,97,0.00,,---,0.14,VWS V14.00,2013-02-11 09:43:00,
2013-02-11 04:46:00,47.8,47.0,29.85,ESE,122,0.0,0.0,97,0.00,,---,0.14,VWS V14.00,2013-02-11 09:46:00,
2013-02-11 04:49:00,47.8,47.0,29.85,ESE,122,0.0,0.0,97,0.00,,---,0.14,VWS V14.00,2013-02-11 09:49:00,
2013-02-11 04:52:00,47.8,47.0,29.85,ESE,122,0.0,0.0,97,0.00,,---,0.14,VWS V14.00,2013-02-11 09:52:00,
2013-02-11 04:55:00,47.8,47.0,29.85,ESE,122,0.0,0.0,97,0.00,,---,0.14,VWS V14.00,2013-02-11 09:55:00,
2013-02-11 04:58:00,47.8,47.0,29.86,ESE,122,0.0,0.0,97,0.00,,---,0.14,VWS V14.00,2013-02-11 09:58:00,
2013-02-11 05:00:00,47.8,47.0,29.86,ESE,122,0.0,0.0,97,0.00,,---,0.14,VWS V14.00,2013-02-11 10:00:00,
2013-02-11 05:01:00,47.8,47.0,29.86,ESE,122,0.0,0.0,97,0.00,,---,0.14,VWS V14.00,2013-02-11 10:01:00,
2013-02-11 05:04:00,47.8,47.0,29.85,ESE,122,0.0,0.0,97,0.00,,---,0.14,VWS V14.00,2013-02-11 10:04:00,
2013-02-11 05:07:00,47.8,47.0,29.85,ESE,122,0.0,0.0,97,0.00,,---,0.14,VWS V14.00,2013-02-11 10:07:00,
2013-02-11 05:10:00,47.8,47.0,29.85,ESE,122,0.0,0.0,97,0.00,,---,0.14,VWS V14.00,2013-02-11 10:10:00,
2013-02-11 05:13:00,47.8,47.0,29.85,ESE,122,0.0,0.0,97,0.00,,---,0.14,VWS V14.00,2013-02-11 10:13:00,
2013-02-11 05:16:00,47.8,47.0,29.85,ESE,122,0.0,0.0,97,0.00,,---,0.14,VWS V14.00,2013-02-11 10:16:00,
2013-02-11 05:19:00,47.8,47.0,29.86,ESE,122,0.0,0.0,97,0.00,,---,0.14,VWS V14.00,2013-02-11 10:19:00,
2013-02-11 05:22:00,47.8,47.0,29.86,ESE,122,0.0,0.0,97,0.00,,---,0.14,VWS V14.00,2013-02-11 10:22:00,
2013-02-11 05:25:00,47.8,47.0,29.86,ESE,122,0.0,0.0,97,0.00,,---,0.14,VWS V14.00,2013-02-11 10:25:00,
2013-02-11 05:28:00,47.8,47.0,29.84,ESE,122,0.0,0.0,97,0.00,,---,0.14,VWS V14.00,2013-02-11 10:28:00,
2013-02-11 05:30:00,47.8,47.0,29.84,ESE,122,0.0,0.0,97,0.00,,---,0.14,VWS V14.00,2013-02-11 10:30:00,
2013-02-11 05:31:00,47.8,47.0,29.84,ESE,122,0.0,0.0,97,0.00,,---,0.14,VWS V14.00,2013-02-11 10:31:00,
2013-02-11 05:34:00,47.8,47.0,29.84,ESE,122,0.0,0.0,97,0.00,,---,0.14,VWS V14.00,2013-02-11 10:34:00,
2013-02-11 05:37:00,47.8,47.0,29.83,ESE,122,0.0,0.0,97,0.00,,---,0.14,VWS V14.00,2013-02-11 10:37:00,
2013-02-11 05:40:00,47.8,47.0,29.83,ESE,122,0.0,0.0,97,0.00,,---,0.14,VWS V14.00,2013-02-11 10:40:00,
2013-02-11 05:43:00,47.8,47.0,29.83,ESE,122,0.0,0.0,97,0.00,,---,0.14,VWS V14.00,2013-02-11 10:43:00,
2013-02-11 05:46:00,47.8,47.0,29.82,ESE,122,0.0,0.0,97,0.00,,---,0.14,VWS V14.00,2013-02-11 10:46:00,
2013-02-11 05:49:00,47.8,47.0,29.82,ESE,122,0.0,0.0,97,0.00,,---,0.14,VWS V14.00,2013-02-11 10:49:00,
2013-02-11 05:52:00,47.8,47.0,29.82,ESE,122,0.0,0.0,97,0.00,,---,0.14,VWS V14.00,2013-02-11 10:52:00,
2013-02-11 05:56:00,47.8,47.0,29.81,ESE,122,0.0,0.0,97,0.00,,---,0.14,VWS V14.00,2013-02-11 10:56:00,
2013-02-11 05:59:00,47.8,47.0,29.82,ESE,122,0.0,0.0,97,0.00,,---,0.14,VWS V14.00,2013-02-11 10:59:00,
2013-02-11 06:00:00,47.8,47.0,29.82,ESE,122,0.0,0.0,97,0.00,,---,0.14,VWS V14.00,2013-02-11 11:00:00,
2013-02-11 06:02:00,47.8,47.0,29.82,ESE,122,0.0,0.0,97,0.00,,---,0.14,VWS V14.00,2013-02-11 11:02:00,
2013-02-11 06:05:00,47.8,47.0,29.81,ESE,122,0.0,0.0,97,0.00,,---,0.14,VWS V14.00,2013-02-11 11:05:00,
2013-02-11 06:08:00,47.8,47.0,29.81,ESE,122,0.0,0.0,97,0.00,,---,0.14,VWS V14.00,2013-02-11 11:08:00,
2013-02-11 06:11:00,47.8,47.0,29.81,ESE,122,0.0,0.0,97,0.00,,---,0.14,VWS V14.00,2013-02-11 11:11:00,
2013-02-11 06:14:00,47.8,47.0,29.81,ESE,122,0.0,0.0,97,0.00,,---,0.14,VWS V14.00,2013-02-11 11:14:00,
2013-02-11 06:17:00,47.8,47.0,29.82,ESE,122,0.0,0.0,97,0.00,,---,0.14,VWS V14.00,2013-02-11 11:17:00,
2013-02-11 06:20:00,47.8,47.0,29.82,ESE,122,0.0,0.0,97,0.00,,---,0.14,VWS V14.00,2013-02-11 11:20:00,
2013-02-11 06:23:00,47.8,47.0,29.81,ESE,122,0.0,0.0,97,0.00,,---,0.14,VWS V14.00,2013-02-11 11:23:00,
2013-02-11 06:26:00,47.8,47.0,29.82,ESE,122,0.0,0.0,97,0.00,,---,0.14,VWS V14.00,2013-02-11 11:26:00,
2013-02-11 06:29:00,47.8,47.0,29.82,ESE,122,0.0,0.0,97,0.00,,---,0.14,VWS V14.00,2013-02-11 11:29:00,
2013-02-11 06:30:00,47.8,47.0,29.83,ESE,122,0.0,0.0,97,0.00,,---,0.14,VWS V14.00,2013-02-11 11:30:00,
2013-02-11 06:32:00,47.8,47.0,29.83,ESE,122,0.0,0.0,97,0.00,,---,0.14,VWS V14.00,2013-02-11 11:32:00,
2013-02-11 06:35:00,47.8,47.0,29.83,ESE,122,0.0,0.0,97,0.00,,---,0.14,VWS V14.00,2013-02-11 11:35:00,
2013-02-11 06:38:00,47.8,47.0,29.83,ESE,122,0.0,0.0,97,0.00,,---,0.14,VWS V14.00,2013-02-11 11:38:00,
2013-02-11 06:41:00,47.8,47.0,29.84,ESE,122,0.0,0.0,97,0.00,,---,0.14,VWS V14.00,2013-02-11 11:41:00,
2013-02-11 06:44:00,47.8,47.0,29.84,ESE,122,0.0,0.0,97,0.00,,---,0.14,VWS V14.00,2013-02-11 11:44:00,
2013-02-11 06:47:00,47.8,47.0,29.84,ESE,122,0.0,0.0,97,0.00,,---,0.14,VWS V14.00,2013-02-11 11:47:00,
2013-02-11 06:50:00,47.8,47.0,29.85,ESE,122,0.0,0.0,97,0.00,,---,0.14,VWS V14.00,2013-02-11 11:50:00,
2013-02-11 06:53:00,47.8,47.0,29.84,ESE,122,0.0,0.0,97,0.00,,---,0.14,VWS V14.00,2013-02-11 11:53:00,
2013-02-11 06:56:00,47.8,47.0,29.85,ESE,122,0.0,0.0,97,0.00,,---,0.14,VWS V14.00,2013-02-11 11:56:00,
2013-02-11 06:59:00,47.8,47.0,29.85,ESE,122,0.0,0.0,97,0.00,,---,0.14,VWS V14.00,2013-02-11 11:59:00,
2013-02-11 07:00:00,47.8,47.0,29.84,ESE,122,0.0,0.0,97,0.00,,---,0.14,VWS V14.00,2013-02-11 12:00:00,
2013-02-11 07:02:00,47.8,47.0,29.84,ESE,122,0.0,0.0,97,0.00,,---,0.14,VWS V14.00,2013-02-11 12:02:00,
2013-02-11 07:05:00,47.8,47.0,29.84,ESE,122,0.0,0.0,97,0.00,,---,0.14,VWS V14.00,2013-02-11 12:05:00,
2013-02-11 07:08:00,47.8,47.0,29.84,ESE,122,0.0,0.0,97,0.00,,---,0.14,VWS V14.00,2013-02-11 12:08:00,
2013-02-11 07:11:00,47.8,47.0,29.84,ESE,122,0.0,0.0,97,0.00,,---,0.14,VWS V14.00,2013-02-11 12:11:00,
2013-02-11 07:14:00,47.8,47.0,29.84,ESE,122,0.0,0.0,97,0.00,,---,0.14,VWS V14.00,2013-02-11 12:14:00,
2013-02-11 07:17:00,47.8,47.0,29.84,ESE,122,0.0,0.0,97,0.00,,---,0.14,VWS V14.00,2013-02-11 12:17:00,
2013-02-11 07:20:00,47.8,47.0,29.85,ESE,122,0.0,0.0,97,0.00,,---,0.14,VWS V14.00,2013-02-11 12:20:00,
2013-02-11 07:23:00,47.8,47.0,29.85,ESE,122,0.0,0.0,97,0.00,,---,0.14,VWS V14.00,2013-02-11 12:23:00,
2013-02-11 07:26:00,47.8,47.0,29.85,ESE,122,0.0,0.0,97,0.00,,---,0.14,VWS V14.00,2013-02-11 12:26:00,
2013-02-11 07:29:00,47.8,47.0,29.85,ESE,122,0.0,0.0,97,0.00,,---,0.14,VWS V14.00,2013-02-11 12:29:00,
2013-02-11 07:30:00,47.8,47.0,29.85,ESE,122,0.0,0.0,97,0.00,,---,0.14,VWS V14.00,2013-02-11 12:30:00,
2013-02-11 07:32:00,47.8,47.0,29.85,ESE,122,0.0,0.0,97,0.00,,---,0.14,VWS V14.00,2013-02-11 12:32:00,
2013-02-11 07:35:00,47.8,47.0,29.85,ESE,122,0.0,0.0,97,0.00,,---,0.14,VWS V14.00,2013-02-11 12:35:00,
2013-02-11 07:38:00,47.8,47.0,29.85,ESE,122,0.0,0.0,97,0.00,,---,0.14,VWS V14.00,2013-02-11 12:38:00,
2013-02-11 07:41:00,47.8,47.0,29.84,ESE,122,0.0,0.0,97,0.00,,---,0.14,VWS V14.00,2013-02-11 12:41:00,
2013-02-11 07:44:00,47.8,47.0,29.84,ESE,122,0.0,0.0,97,0.00,,---,0.14,VWS V14.00,2013-02-11 12:44:00,
2013-02-11 07:47:00,47.8,47.0,29.84,ESE,122,0.0,0.0,97,0.00,,---,0.14,VWS V14.00,2013-02-11 12:47:00,
2013-02-11 07:50:00,47.8,47.0,29.85,ESE,122,0.0,0.0,97,0.00,,---,0.14,VWS V14.00,2013-02-11 12:50:00,
2013-02-11 07:53:00,47.8,47.0,29.85,ESE,122,0.0,0.0,97,0.00,,---,0.14,VWS V14.00,2013-02-11 12:53:00,
2013-02-11 07:56:00,47.8,47.0,29.85,ESE,122,0.0,0.0,97,0.00,,---,0.14,VWS V14.00,2013-02-11 12:56:00,
2013-02-11 07:59:00,47.8,47.0,29.85,ESE,122,0.0,0.0,97,0.00,,---,0.14,VWS V14.00,2013-02-11 12:59:00,
2013-02-11 08:02:00,47.8,47.0,29.85,ESE,122,0.0,0.0,97,0.00,,---,0.14,VWS V14.00,2013-02-11 13:02:00,
2013-02-11 08:05:00,47.8,47.0,29.85,ESE,122,0.0,0.0,97,0.00,,---,0.14,VWS V14.00,2013-02-11 13:05:00,
2013-02-11 08:08:00,47.8,47.0,29.85,ESE,122,0.0,0.0,97,0.00,,---,0.14,VWS V14.00,2013-02-11 13:08:00,
2013-02-11 08:11:00,47.8,47.0,29.85,ESE,122,0.0,0.0,97,0.00,,---,0.14,VWS V14.00,2013-02-11 13:11:00,
2013-02-11 08:14:00,47.8,47.0,29.85,ESE,122,0.0,0.0,97,0.00,,---,0.14,VWS V14.00,2013-02-11 13:14:00,
2013-02-11 08:17:00,47.8,47.0,29.85,ESE,122,0.0,0.0,97,0.00,,---,0.14,VWS V14.00,2013-02-11 13:17:00,
2013-02-11 08:20:00,47.8,47.0,29.84,ESE,122,0.0,0.0,97,0.00,,---,0.14,VWS V14.00,2013-02-11 13:20:00,
2013-02-11 08:23:00,47.8,47.0,29.84,ESE,122,0.0,0.0,97,0.00,,---,0.14,VWS V14.00,2013-02-11 13:23:00,
2013-02-11 08:26:00,47.8,47.0,29.84,ESE,122,0.0,0.0,97,0.00,,---,0.14,VWS V14.00,2013-02-11 13:26:00,
2013-02-11 08:29:00,47.8,47.0,29.84,ESE,122,0.0,0.0,97,0.00,,---,0.14,VWS V14.00,2013-02-11 13:29:00,
2013-02-11 08:30:00,47.8,47.0,29.84,ESE,122,0.0,0.0,97,0.00,,---,0.14,VWS V14.00,2013-02-11 13:30:00,
2013-02-11 08:32:00,47.8,47.0,29.84,ESE,122,0.0,0.0,97,0.00,,---,0.14,VWS V14.00,2013-02-11 13:32:00,
2013-02-11 08:35:00,47.8,47.0,29.84,ESE,122,0.0,0.0,97,0.00,,---,0.14,VWS V14.00,2013-02-11 13:35:00,
2013-02-11 08:38:00,47.8,47.0,29.84,ESE,122,0.0,0.0,97,0.00,,---,0.14,VWS V14.00,2013-02-11 13:38:00,
2013-02-11 08:41:00,47.8,47.0,29.83,ESE,122,0.0,0.0,97,0.00,,---,0.14,VWS V14.00,2013-02-11 13:41:00,
2013-02-11 08:44:00,47.8,47.0,29.83,ESE,122,0.0,0.0,97,0.00,,---,0.14,VWS V14.00,2013-02-11 13:44:00,
2013-02-11 08:47:00,47.8,47.0,29.83,ESE,122,0.0,0.0,97,0.00,,---,0.14,VWS V14.00,2013-02-11 13:47:00,
2013-02-11 08:50:00,47.8,47.0,29.83,ESE,122,0.0,0.0,97,0.00,,---,0.14,VWS V14.00,2013-02-11 13:50:00,
2013-02-11 08:53:00,47.8,47.0,29.84,ESE,122,0.0,0.0,97,0.00,,---,0.14,VWS V14.00,2013-02-11 13:53:00,
2013-02-11 08:56:00,47.8,47.0,29.84,ESE,122,0.0,0.0,97,0.00,,---,0.14,VWS V14.00,2013-02-11 13:56:00,
2013-02-11 08:59:00,47.8,47.0,29.83,ESE,122,0.0,0.0,97,0.00,,---,0.14,VWS V14.00,2013-02-11 13:59:00,
2013-02-11 09:00:00,47.8,47.0,29.83,ESE,122,0.0,0.0,97,0.00,,---,0.14,VWS V14.00,2013-02-11 14:00:00,
2013-02-11 09:02:00,47.8,47.0,29.83,ESE,122,0.0,0.0,97,0.00,,---,0.14,VWS V14.00,2013-02-11 14:02:00,
2013-02-11 09:05:00,47.8,47.0,29.83,ESE,122,0.0,0.0,97,0.00,,---,0.14,VWS V14.00,2013-02-11 14:05:00,
2013-02-11 09:08:00,47.8,47.0,29.83,ESE,122,0.0,0.0,97,0.00,,---,0.14,VWS V14.00,2013-02-11 14:08:00,
2013-02-11 09:11:00,47.8,47.0,29.82,ESE,122,0.0,0.0,97,0.00,,---,0.14,VWS V14.00,2013-02-11 14:11:00,
2013-02-11 09:14:00,47.8,47.0,29.82,ESE,122,0.0,0.0,97,0.00,,---,0.14,VWS V14.00,2013-02-11 14:14:00,
2013-02-11 09:17:00,47.8,47.0,29.83,ESE,122,0.0,0.0,97,0.00,,---,0.14,VWS V14.00,2013-02-11 14:17:00,
2013-02-11 09:20:00,47.8,47.0,29.83,ESE,122,0.0,0.0,97,0.00,,---,0.14,VWS V14.00,2013-02-11 14:20:00,
2013-02-11 09:23:00,47.8,47.0,29.83,ESE,122,0.0,0.0,97,0.00,,---,0.14,VWS V14.00,2013-02-11 14:23:00,
2013-02-11 09:26:00,47.8,47.0,29.83,ESE,122,0.0,0.0,97,0.00,,---,0.14,VWS V14.00,2013-02-11 14:26:00,
2013-02-11 09:29:00,47.8,47.0,29.83,ESE,122,0.0,0.0,97,0.00,,---,0.14,VWS V14.00,2013-02-11 14:29:00,
2013-02-11 09:30:00,47.8,47.0,29.83,ESE,122,0.0,0.0,97,0.00,,---,0.14,VWS V14.00,2013-02-11 14:30:00,
2013-02-11 09:32:00,47.8,47.0,29.83,ESE,122,0.0,0.0,97,0.00,,---,0.14,VWS V14.00,2013-02-11 14:32:00,
2013-02-11 09:35:00,47.8,47.0,29.83,ESE,122,0.0,0.0,97,0.00,,---,0.14,VWS V14.00,2013-02-11 14:35:00,
2013-02-11 09:38:00,47.8,47.0,29.83,ESE,122,0.0,0.0,97,0.00,,---,0.14,VWS V14.00,2013-02-11 14:38:00,
2013-02-11 09:41:00,47.8,47.0,29.83,ESE,122,0.0,0.0,97,0.00,,---,0.14,VWS V14.00,2013-02-11 14:41:00,
2013-02-11 09:44:00,47.8,47.0,29.83,ESE,122,0.0,0.0,97,0.00,,---,0.14,VWS V14.00,2013-02-11 14:44:00,
2013-02-11 09:47:00,47.8,47.0,29.83,ESE,122,0.0,0.0,97,0.00,,---,0.14,VWS V14.00,2013-02-11 14:47:00,
2013-02-11 09:50:00,47.8,47.0,29.82,ESE,122,0.0,0.0,97,0.00,,---,0.14,VWS V14.00,2013-02-11 14:50:00,
2013-02-11 09:56:00,47.8,47.0,29.83,ESE,122,0.0,0.0,97,0.00,,---,0.14,VWS V14.00,2013-02-11 14:56:00,
2013-02-11 09:59:00,53.4,52.6,29.84,South,177,5.0,7.0,97,0.00,,---,0.14,VWS V14.00,2013-02-11 14:59:00,
2013-02-11 10:00:00,53.4,52.6,29.84,SSW,200,4.0,7.0,97,0.00,,---,0.14,VWS V14.00,2013-02-11 15:00:00,
2013-02-11 10:05:00,53.6,52.5,29.84,South,184,2.0,7.0,96,0.00,,---,0.14,VWS V14.00,2013-02-11 15:05:00,
2013-02-11 10:11:00,53.8,52.7,29.83,South,183,6.0,8.0,96,0.00,,---,0.14,VWS V14.00,2013-02-11 15:11:00,
2013-02-11 10:18:00,47.8,47.0,29.83,ESE,122,0.0,0.0,97,0.00,,---,0.14,VWS V14.00,2013-02-11 15:18:00,
2013-02-11 10:27:00,53.5,52.7,29.84,SSE,160,6.0,7.0,97,0.00,,---,0.14,VWS V14.00,2013-02-11 15:27:00,
2013-02-11 10:30:00,54.2,53.1,29.83,SSE,160,2.0,8.0,96,0.00,,---,0.14,VWS V14.00,2013-02-11 15:30:00,
2013-02-11 10:33:00,53.7,52.6,29.83,South,174,5.0,7.0,96,0.00,,---,0.14,VWS V14.00,2013-02-11 15:33:00,
2013-02-11 10:36:00,54.3,53.2,29.84,SW,218,3.0,6.0,96,0.00,,---,0.14,VWS V14.00,2013-02-11 15:36:00,
2013-02-11 10:39:00,53.9,52.8,29.84,SW,214,2.0,8.0,96,0.00,,---,0.14,VWS V14.00,2013-02-11 15:39:00,
2013-02-11 10:42:00,54.5,53.4,29.85,South,188,1.0,6.0,96,0.00,,---,0.14,VWS V14.00,2013-02-11 15:42:00,
2013-02-11 10:45:00,53.9,52.8,29.84,SSE,167,1.0,8.0,96,0.00,,---,0.14,VWS V14.00,2013-02-11 15:45:00,
2013-02-11 10:48:00,54.8,53.7,29.85,SSW,193,4.0,9.0,96,0.00,,---,0.14,VWS V14.00,2013-02-11 15:48:00,
2013-02-11 10:51:00,54.0,52.9,29.84,SSE,153,4.0,8.0,96,0.00,,---,0.14,VWS V14.00,2013-02-11 15:51:00,
2013-02-11 10:54:00,55.2,53.5,29.84,West,262,0.0,9.0,94,0.00,,---,0.14,VWS V14.00,2013-02-11 15:54:00,
2013-02-11 10:57:00,55.5,53.8,29.84,SE,142,3.0,9.0,94,0.00,,---,0.14,VWS V14.00,2013-02-11 15:57:00,
2013-02-11 11:00:00,55.6,53.6,29.84,SSE,156,4.0,9.0,93,0.00,,---,0.14,VWS V14.00,2013-02-11 16:00:00,
2013-02-11 11:03:00,55.7,53.7,29.83,SSW,203,3.0,7.0,93,0.00,,---,0.14,VWS V14.00,2013-02-11 16:03:00,
2013-02-11 11:06:00,55.6,53.6,29.83,SSE,160,3.0,7.0,93,0.00,,---,0.14,VWS V14.00,2013-02-11 16:06:00,
2013-02-11 11:09:00,55.5,53.5,29.83,SSE,167,5.0,7.0,93,0.00,,---,0.14,VWS V14.00,2013-02-11 16:09:00,
2013-02-11 11:12:00,55.3,53.6,29.83,SSW,207,0.0,7.0,94,0.00,,---,0.14,VWS V14.00,2013-02-11 16:12:00,
2013-02-11 11:15:00,55.2,53.5,29.83,WSW,250,2.0,7.0,94,0.00,,---,0.14,VWS V14.00,2013-02-11 16:15:00,
2013-02-11 11:18:00,55.3,53.6,29.82,SW,226,3.0,7.0,94,0.00,,---,0.14,VWS V14.00,2013-02-11 16:18:00,
2013-02-11 11:21:00,55.4,53.7,29.82,SSW,208,1.0,7.0,94,0.00,,---,0.14,VWS V14.00,2013-02-11 16:21:00,
2013-02-11 11:24:00,55.5,53.8,29.81,SSE,165,4.0,7.0,94,0.00,,---,0.14,VWS V14.00,2013-02-11 16:24:00,
2013-02-11 11:27:00,55.7,53.7,29.81,South,183,3.0,8.0,93,0.00,,---,0.14,VWS V14.00,2013-02-11 16:27:00,
2013-02-11 11:30:00,55.7,53.7,29.81,South,177,5.0,8.0,93,0.00,,---,0.14,VWS V14.00,2013-02-11 16:30:00,
2013-02-11 11:33:00,55.8,54.1,29.82,SSW,210,1.0,8.0,94,0.00,,---,0.14,VWS V14.00,2013-02-11 16:33:00,
2013-02-11 11:36:00,55.9,53.9,29.82,South,172,2.0,8.0,93,0.00,,---,0.14,VWS V14.00,2013-02-11 16:36:00,
2013-02-11 11:39:00,56.0,54.0,29.82,SSW,212,3.0,8.0,93,0.00,,---,0.14,VWS V14.00,2013-02-11 16:39:00,
2013-02-11 11:42:00,56.0,54.0,29.82,SSW,193,2.0,8.0,93,0.00,,---,0.14,VWS V14.00,2013-02-11 16:42:00,
2013-02-11 11:45:00,56.0,53.7,29.82,South,176,2.0,8.0,92,0.00,,---,0.14,VWS V14.00,2013-02-11 16:45:00,
2013-02-11 11:48:00,56.1,53.8,29.83,South,188,4.0,8.0,92,0.00,,---,0.14,VWS V14.00,2013-02-11 16:48:00,
2013-02-11 11:51:00,56.1,53.8,29.82,SSE,160,4.0,8.0,92,0.00,,---,0.14,VWS V14.00,2013-02-11 16:51:00,
2013-02-11 11:54:00,56.2,53.6,29.82,SSE,160,2.0,8.0,91,0.00,,---,0.14,VWS V14.00,2013-02-11 16:54:00,
2013-02-11 11:57:00,56.2,53.6,29.82,South,181,6.0,8.0,91,0.00,,---,0.14,VWS V14.00,2013-02-11 16:57:00,
2013-02-11 12:00:00,56.3,53.4,29.82,SW,229,1.0,8.0,90,0.00,,---,0.14,VWS V14.00,2013-02-11 17:00:00,
2013-02-11 12:03:00,56.4,53.5,29.82,ESE,114,2.0,4.0,90,0.00,,---,0.14,VWS V14.00,2013-02-11 17:03:00,
2013-02-11 12:06:00,56.5,53.0,29.82,North,351,2.0,6.0,88,0.00,,---,0.14,VWS V14.00,2013-02-11 17:06:00,
2013-02-11 12:09:00,56.6,52.5,29.82,ESE,117,1.0,6.0,86,0.00,,---,0.14,VWS V14.00,2013-02-11 17:09:00,
2013-02-11 12:12:00,56.8,52.7,29.82,SE,143,1.0,6.0,86,0.00,,---,0.14,VWS V14.00,2013-02-11 17:12:00,
2013-02-11 12:15:00,56.9,52.1,29.82,ESE,110,2.0,6.0,84,0.00,,---,0.14,VWS V14.00,2013-02-11 17:15:00,
2013-02-11 12:18:00,57.0,52.2,29.82,East,97,3.0,6.0,84,0.00,,---,0.14,VWS V14.00,2013-02-11 17:18:00,
2013-02-11 12:21:00,57.0,52.2,29.82,SSW,195,2.0,7.0,84,0.00,,---,0.14,VWS V14.00,2013-02-11 17:21:00,
2013-02-11 12:24:00,57.1,52.3,29.83,SSW,213,0.0,7.0,84,0.00,,---,0.14,VWS V14.00,2013-02-11 17:24:00,
2013-02-11 12:27:00,57.1,52.0,29.83,SSE,167,1.0,7.0,83,0.00,,---,0.14,VWS V14.00,2013-02-11 17:27:00,
2013-02-11 12:30:00,57.2,52.1,29.83,SSE,160,1.0,7.0,83,0.00,,---,0.14,VWS V14.00,2013-02-11 17:30:00,
2013-02-11 12:33:00,57.2,51.8,29.83,NW,320,0.0,4.0,82,0.00,,---,0.14,VWS V14.00,2013-02-11 17:33:00,
2013-02-11 12:36:00,57.2,51.8,29.84,NNW,330,4.0,7.0,82,0.00,,---,0.14,VWS V14.00,2013-02-11 17:36:00,
2013-02-11 12:39:00,57.0,51.2,29.84,WSW,257,3.0,8.0,81,0.00,,---,0.14,VWS V14.00,2013-02-11 17:39:00,
2013-02-11 12:42:00,56.8,51.4,29.84,West,281,3.0,8.0,82,0.00,,---,0.14,VWS V14.00,2013-02-11 17:42:00,
2013-02-11 12:45:00,56.7,50.9,29.84,NW,309,5.0,9.0,81,0.00,,---,0.14,VWS V14.00,2013-02-11 17:45:00,
2013-02-11 12:48:00,56.5,51.1,29.84,SW,234,6.0,9.0,82,0.00,,---,0.14,VWS V14.00,2013-02-11 17:48:00,
2013-02-11 12:51:00,56.4,51.0,29.84,WNW,298,8.0,9.0,82,0.00,,---,0.14,VWS V14.00,2013-02-11 17:51:00,
2013-02-11 12:54:00,56.4,50.7,29.84,West,273,2.0,9.0,81,0.00,,---,0.14,VWS V14.00,2013-02-11 17:54:00,
2013-02-11 12:57:00,56.5,50.4,29.84,WNW,286,6.0,9.0,80,0.00,,---,0.14,VWS V14.00,2013-02-11 17:57:00,
2013-02-11 13:00:00,56.6,50.5,29.83,South,172,2.0,9.0,80,0.00,,---,0.14,VWS V14.00,2013-02-11 18:00:00,
2013-02-11 13:03:00,56.6,49.8,29.82,South,176,1.0,5.0,78,0.00,,---,0.14,VWS V14.00,2013-02-11 18:03:00,
2013-02-11 13:06:00,56.7,49.6,29.82,SSW,206,6.0,6.0,77,0.00,,---,0.14,VWS V14.00,2013-02-11 18:06:00,
2013-02-11 13:09:00,56.8,49.3,29.82,West,281,3.0,9.0,76,0.00,,---,0.14,VWS V14.00,2013-02-11 18:09:00,
2013-02-11 13:12:00,56.8,49.7,29.81,West,262,4.0,9.0,77,0.00,,---,0.14,VWS V14.00,2013-02-11 18:12:00,
2013-02-11 13:15:00,56.7,49.6,29.80,SSE,154,3.0,9.0,77,0.00,,---,0.14,VWS V14.00,2013-02-11 18:15:00,
2013-02-11 13:18:00,56.7,50.3,29.80,SE,136,1.0,9.0,79,0.00,,---,0.14,VWS V14.00,2013-02-11 18:18:00,
2013-02-11 13:21:00,56.7,49.2,29.80,South,176,4.0,9.0,76,0.00,,---,0.14,VWS V14.00,2013-02-11 18:21:00,
2013-02-11 13:24:00,56.8,47.9,29.80,SW,217,2.0,9.0,72,0.00,,---,0.14,VWS V14.00,2013-02-11 18:24:00,
2013-02-11 13:27:00,57.0,48.1,29.81,NNW,328,5.0,9.0,72,0.00,,---,0.14,VWS V14.00,2013-02-11 18:27:00,
2013-02-11 13:30:00,57.0,46.9,29.81,NW,311,3.0,9.0,69,0.00,,---,0.14,VWS V14.00,2013-02-11 18:30:00,
2013-02-11 13:33:00,57.1,46.7,29.80,SSW,195,2.0,9.0,68,0.00,,---,0.14,VWS V14.00,2013-02-11 18:33:00,
2013-02-11 13:36:00,57.0,44.5,29.80,West,259,4.0,9.0,63,0.00,,---,0.14,VWS V14.00,2013-02-11 18:36:00,
2013-02-11 13:39:00,57.0,44.5,29.81,WNW,301,3.0,9.0,63,0.00,,---,0.14,VWS V14.00,2013-02-11 18:39:00,
2013-02-11 13:42:00,57.1,44.2,29.81,NW,316,3.0,9.0,62,0.00,,---,0.14,VWS V14.00,2013-02-11 18:42:00,
2013-02-11 13:45:00,57.0,44.1,29.81,NW,316,8.0,13.0,62,0.00,,---,0.14,VWS V14.00,2013-02-11 18:45:00,
2013-02-11 13:48:00,57.1,43.4,29.81,North,356,1.0,13.0,60,0.00,,---,0.14,VWS V14.00,2013-02-11 18:48:00,
2013-02-11 13:51:00,57.1,43.4,29.81,NNW,335,5.0,13.0,60,0.00,,---,0.14,VWS V14.00,2013-02-11 18:51:00,
2013-02-11 13:54:00,57.2,43.0,29.81,WNW,291,1.0,13.0,59,0.00,,---,0.14,VWS V14.00,2013-02-11 18:54:00,
2013-02-11 13:57:00,57.3,41.8,29.80,WNW,302,6.0,13.0,56,0.00,,---,0.14,VWS V14.00,2013-02-11 18:57:00,
2013-02-11 14:00:00,57.4,41.4,29.80,WNW,287,3.0,13.0,55,0.00,,---,0.14,VWS V14.00,2013-02-11 19:00:00,
2013-02-11 14:03:00,57.3,41.8,29.80,NW,326,5.0,9.0,56,0.00,,---,0.14,VWS V14.00,2013-02-11 19:03:00,
2013-02-11 14:06:00,57.3,41.8,29.79,NNE,27,1.0,9.0,56,0.00,,---,0.14,VWS V14.00,2013-02-11 19:06:00,
2013-02-11 14:09:00,57.3,40.8,29.79,West,262,2.0,9.0,54,0.00,,---,0.14,VWS V14.00,2013-02-11 19:09:00,
2013-02-11 14:12:00,57.4,43.2,29.79,WSW,243,3.0,9.0,59,0.00,,---,0.14,VWS V14.00,2013-02-11 19:12:00,
2013-02-11 14:15:00,57.3,41.8,29.80,WNW,298,0.0,9.0,56,0.00,,---,0.14,VWS V14.00,2013-02-11 19:15:00,
2013-02-11 14:18:00,57.4,43.2,29.80,SW,220,4.0,9.0,59,0.00,,---,0.14,VWS V14.00,2013-02-11 19:18:00,
2013-02-11 14:22:00,57.3,41.8,29.80,NW,323,1.0,9.0,56,0.00,,---,0.14,VWS V14.00,2013-02-11 19:22:00,
2013-02-11 14:25:00,57.3,42.2,29.80,WNW,294,1.0,9.0,57,0.00,,---,0.14,VWS V14.00,2013-02-11 19:25:00,
2013-02-11 14:28:00,57.3,41.8,29.80,NW,312,4.0,9.0,56,0.00,,---,0.14,VWS V14.00,2013-02-11 19:28:00,
2013-02-11 14:30:00,57.3,41.3,29.80,WSW,257,1.0,9.0,55,0.00,,---,0.14,VWS V14.00,2013-02-11 19:30:00,
2013-02-11 14:31:00,57.2,40.7,29.80,West,281,2.0,5.0,54,0.00,,---,0.14,VWS V14.00,2013-02-11 19:31:00,
2013-02-11 14:34:00,57.2,42.1,29.80,West,264,4.0,12.0,57,0.00,,---,0.14,VWS V14.00,2013-02-11 19:34:00,
2013-02-11 14:37:00,57.3,40.3,29.80,SW,218,4.0,12.0,53,0.00,,---,0.14,VWS V14.00,2013-02-11 19:37:00,
2013-02-11 14:40:00,57.2,40.2,29.80,WNW,303,0.0,12.0,53,0.00,,---,0.14,VWS V14.00,2013-02-11 19:40:00,
2013-02-11 14:43:00,57.0,40.1,29.80,WSW,249,2.0,12.0,53,0.00,,---,0.14,VWS V14.00,2013-02-11 19:43:00,
2013-02-11 14:46:00,56.8,38.9,29.80,ENE,72,0.0,12.0,51,0.00,,---,0.14,VWS V14.00,2013-02-11 19:46:00,
2013-02-11 14:49:00,56.7,38.8,29.81,WSW,240,4.0,12.0,51,0.00,,---,0.14,VWS V14.00,2013-02-11 19:49:00,
2013-02-11 14:52:00,56.4,39.0,29.81,South,184,1.0,12.0,52,0.00,,---,0.14,VWS V14.00,2013-02-11 19:52:00,
2013-02-11 14:55:00,56.3,38.9,29.81,ESE,122,1.0,12.0,52,0.00,,---,0.14,VWS V14.00,2013-02-11 19:55:00,
2013-02-11 14:58:00,56.2,39.3,29.81,ESE,102,1.0,12.0,53,0.00,,---,0.14,VWS V14.00,2013-02-11 19:58:00,
2013-02-11 15:00:00,56.1,39.7,29.81,WSW,250,1.0,12.0,54,0.00,,---,0.14,VWS V14.00,2013-02-11 20:00:00,
2013-02-11 15:01:00,56.0,39.1,29.80,SW,231,1.0,5.0,53,0.00,,---,0.14,VWS V14.00,2013-02-11 20:01:00,
2013-02-11 15:04:00,55.9,39.5,29.81,WNW,285,2.0,5.0,54,0.00,,---,0.14,VWS V14.00,2013-02-11 20:04:00,
2013-02-11 15:07:00,55.9,39.0,29.80,NNE,24,0.0,9.0,53,0.00,,---,0.14,VWS V14.00,2013-02-11 20:07:00,
2013-02-11 15:10:00,56.0,38.6,29.79,SW,225,0.0,12.0,52,0.00,,---,0.14,VWS V14.00,2013-02-11 20:10:00,
2013-02-11 15:13:00,55.9,39.0,29.79,NNE,16,3.0,12.0,53,0.00,,---,0.14,VWS V14.00,2013-02-11 20:13:00,
2013-02-11 15:16:00,55.9,38.5,29.78,West,280,3.0,12.0,52,0.00,,---,0.14,VWS V14.00,2013-02-11 20:16:00,
2013-02-11 15:19:00,55.9,40.0,29.77,SE,136,2.0,12.0,55,0.00,,---,0.14,VWS V14.00,2013-02-11 20:19:00,
2013-02-11 15:22:00,55.8,39.9,29.77,SE,131,2.0,12.0,55,0.00,,---,0.14,VWS V14.00,2013-02-11 20:22:00,
2013-02-11 15:25:00,55.7,40.3,29.77,ENE,60,5.0,12.0,56,0.00,,---,0.14,VWS V14.00,2013-02-11 20:25:00,
2013-02-11 15:28:00,55.7,39.3,29.78,SSW,203,1.0,12.0,54,0.00,,---,0.14,VWS V14.00,2013-02-11 20:28:00,
2013-02-11 15:30:00,55.7,39.8,29.77,West,273,2.0,12.0,55,0.00,,---,0.14,VWS V14.00,2013-02-11 20:30:00,
2013-02-11 15:31:00,55.7,39.3,29.77,North,5,2.0,3.0,54,0.00,,---,0.14,VWS V14.00,2013-02-11 20:31:00,
2013-02-11 15:34:00,55.7,38.8,29.77,NNE,13,2.0,7.0,53,0.00,,---,0.14,VWS V14.00,2013-02-11 20:34:00,
2013-02-11 15:37:00,55.7,39.3,29.78,NW,323,2.0,7.0,54,0.00,,---,0.14,VWS V14.00,2013-02-11 20:37:00,
2013-02-11 15:40:00,55.7,40.3,29.79,NNW,337,2.0,7.0,56,0.00,,---,0.14,VWS V14.00,2013-02-11 20:40:00,
2013-02-11 15:43:00,55.5,39.6,29.79,NW,322,4.0,10.0,55,0.00,,---,0.14,VWS V14.00,2013-02-11 20:43:00,
2013-02-11 15:46:00,55.5,39.1,29.79,NNW,333,6.0,10.0,54,0.00,,---,0.14,VWS V14.00,2013-02-11 20:46:00,
2013-02-11 15:49:00,55.6,39.7,29.79,NNW,343,2.0,10.0,55,0.00,,---,0.14,VWS V14.00,2013-02-11 20:49:00,
2013-02-11 15:52:00,55.6,39.2,29.79,North,7,6.0,10.0,54,0.00,,---,0.14,VWS V14.00,2013-02-11 20:52:00,
2013-02-11 15:55:00,55.5,39.1,29.80,West,274,2.0,10.0,54,0.00,,---,0.14,VWS V14.00,2013-02-11 20:55:00,
2013-02-11 15:58:00,55.5,39.6,29.79,NNW,340,2.0,10.0,55,0.00,,---,0.14,VWS V14.00,2013-02-11 20:58:00,
2013-02-11 16:00:00,55.4,39.5,29.79,WNW,287,4.0,10.0,55,0.00,,---,0.14,VWS V14.00,2013-02-11 21:00:00,
2013-02-11 16:01:00,55.4,40.0,29.79,NNW,329,1.0,4.0,56,0.00,,---,0.14,VWS V14.00,2013-02-11 21:01:00,
2013-02-11 16:04:00,55.4,39.0,29.79,WSW,256,4.0,9.0,54,0.00,,---,0.14,VWS V14.00,2013-02-11 21:04:00,
2013-02-11 16:07:00,55.3,38.0,29.80,WNW,300,7.0,11.0,52,0.00,,---,0.14,VWS V14.00,2013-02-11 21:07:00,
2013-02-11 16:10:00,55.3,38.0,29.80,WNW,287,3.0,11.0,52,0.00,,---,0.14,VWS V14.00,2013-02-11 21:10:00,
2013-02-11 16:13:00,55.2,37.9,29.80,NW,319,2.0,11.0,52,0.00,,---,0.14,VWS V14.00,2013-02-11 21:13:00,
2013-02-11 16:16:00,55.2,37.9,29.81,NW,314,2.0,11.0,52,0.00,,---,0.14,VWS V14.00,2013-02-11 21:16:00,
2013-02-11 16:19:00,55.2,38.4,29.81,NW,322,3.0,11.0,53,0.00,,---,0.14,VWS V14.00,2013-02-11 21:19:00,
2013-02-11 16:22:00,55.1,37.8,29.81,NW,311,7.0,11.0,52,0.00,,---,0.14,VWS V14.00,2013-02-11 21:22:00,
2013-02-11 16:25:00,55.0,38.2,29.81,NNW,329,5.0,11.0,53,0.00,,---,0.14,VWS V14.00,2013-02-11 21:25:00,
2013-02-11 16:28:00,54.9,38.1,29.80,NNE,15,3.0,11.0,53,0.00,,---,0.14,VWS V14.00,2013-02-11 21:28:00,
2013-02-11 16:30:00,54.9,37.1,29.80,NW,319,7.0,11.0,51,0.00,,---,0.14,VWS V14.00,2013-02-11 21:30:00,
2013-02-11 16:31:00,54.9,37.6,29.80,NW,305,5.0,7.0,52,0.00,,---,0.14,VWS V14.00,2013-02-11 21:31:00,
2013-02-11 16:34:00,54.9,37.1,29.80,NE,35,4.0,8.0,51,0.00,,---,0.14,VWS V14.00,2013-02-11 21:34:00,
2013-02-11 16:37:00,54.9,37.6,29.80,WNW,287,1.0,8.0,52,0.00,,---,0.14,VWS V14.00,2013-02-11 21:37:00,
2013-02-11 16:40:00,54.8,37.5,29.79,NNE,20,4.0,8.0,52,0.00,,---,0.14,VWS V14.00,2013-02-11 21:40:00,
2013-02-11 16:43:00,54.6,38.3,29.77,NW,321,2.0,8.0,54,0.00,,---,0.14,VWS V14.00,2013-02-11 21:43:00,
2013-02-11 16:46:00,54.5,36.8,29.77,West,278,2.0,8.0,51,0.00,,---,0.14,VWS V14.00,2013-02-11 21:46:00,
2013-02-11 16:49:00,54.4,36.2,29.78,NW,322,4.0,8.0,50,0.00,,---,0.14,VWS V14.00,2013-02-11 21:49:00,
2013-02-11 16:52:00,54.4,37.6,29.79,NNW,330,4.0,8.0,53,0.00,,---,0.14,VWS V14.00,2013-02-11 21:52:00,
2013-02-11 16:55:00,54.3,37.1,29.80,NNW,345,1.0,8.0,52,0.00,,---,0.14,VWS V14.00,2013-02-11 21:55:00,
2013-02-11 16:58:00,54.3,37.1,29.80,NW,311,1.0,8.0,52,0.00,,---,0.14,VWS V14.00,2013-02-11 21:58:00,
2013-02-11 17:00:00,54.3,38.0,29.80,West,269,2.0,8.0,54,0.00,,---,0.14,VWS V14.00,2013-02-11 22:00:00,
2013-02-11 17:01:00,54.2,37.0,29.80,NW,321,4.0,5.0,52,0.00,,---,0.14,VWS V14.00,2013-02-11 22:01:00,
2013-02-11 17:04:00,54.2,37.0,29.78,North,1,2.0,7.0,52,0.00,,---,0.14,VWS V14.00,2013-02-11 22:04:00,
2013-02-11 17:07:00,54.2,37.5,29.79,NNE,20,4.0,7.0,53,0.00,,---,0.14,VWS V14.00,2013-02-11 22:07:00,
2013-02-11 17:10:00,54.2,37.9,29.78,WNW,290,2.0,8.0,54,0.00,,---,0.14,VWS V14.00,2013-02-11 22:10:00,
2013-02-11 17:13:00,53.9,38.1,29.80,West,278,1.0,8.0,55,0.00,,---,0.14,VWS V14.00,2013-02-11 22:13:00,
2013-02-11 17:16:00,53.7,37.9,29.79,NNW,336,1.0,8.0,55,0.00,,---,0.14,VWS V14.00,2013-02-11 22:16:00,
2013-02-11 17:19:00,53.5,37.8,29.81,West,281,0.0,8.0,55,0.00,,---,0.14,VWS V14.00,2013-02-11 22:19:00,
2013-02-11 17:22:00,53.4,36.7,29.80,WSW,256,1.0,8.0,53,0.00,,---,0.14,VWS V14.00,2013-02-11 22:22:00,
2013-02-11 17:25:00,53.5,35.8,29.81,SSW,198,3.0,8.0,51,0.00,,---,0.14,VWS V14.00,2013-02-11 22:25:00,
2013-02-11 17:28:00,53.6,34.9,29.81,SW,225,1.0,8.0,49,0.00,,---,0.14,VWS V14.00,2013-02-11 22:28:00,
2013-02-11 17:30:00,53.6,34.4,29.81,WSW,257,1.0,8.0,48,0.00,,---,0.14,VWS V14.00,2013-02-11 22:30:00,
2013-02-11 17:31:00,53.6,34.4,29.81,WSW,245,2.0,4.0,48,0.00,,---,0.14,VWS V14.00,2013-02-11 22:31:00,
2013-02-11 17:34:00,53.6,36.4,29.80,NNW,339,2.0,4.0,52,0.00,,---,0.14,VWS V14.00,2013-02-11 22:34:00,
2013-02-11 17:37:00,53.4,38.6,29.80,WNW,303,0.0,4.0,57,0.00,,---,0.14,VWS V14.00,2013-02-11 22:37:00,
2013-02-11 17:40:00,53.1,38.7,29.80,WNW,303,0.0,4.0,58,0.00,,---,0.14,VWS V14.00,2013-02-11 22:40:00,
2013-02-11 17:43:00,52.6,37.4,29.81,WNW,288,0.0,4.0,56,0.00,,---,0.14,VWS V14.00,2013-02-11 22:43:00,
2013-02-11 17:46:00,52.2,37.4,29.79,WNW,288,0.0,4.0,57,0.00,,---,0.14,VWS V14.00,2013-02-11 22:46:00,
2013-02-11 17:49:00,52.0,37.7,29.80,WNW,286,0.0,4.0,58,0.00,,---,0.14,VWS V14.00,2013-02-11 22:49:00,
2013-02-11 17:52:00,51.6,38.2,29.80,SE,132,1.0,4.0,60,0.00,,---,0.14,VWS V14.00,2013-02-11 22:52:00,
2013-02-11 17:55:00,51.3,39.2,29.81,WSW,240,1.0,4.0,63,0.00,,---,0.14,VWS V14.00,2013-02-11 22:55:00,
2013-02-11 17:59:00,50.8,39.1,29.81,SE,136,1.0,4.0,64,0.00,,---,0.14,VWS V14.00,2013-02-11 22:59:00,
2013-02-11 18:00:00,50.7,37.3,29.81,SE,141,2.0,4.0,60,0.00,,---,0.14,VWS V14.00,2013-02-11 23:00:00,
2013-02-11 18:02:00,50.5,38.0,29.81,SSE,160,2.0,3.0,62,0.00,,---,0.14,VWS V14.00,2013-02-11 23:02:00,
2013-02-11 18:05:00,50.3,37.8,29.81,South,186,1.0,3.0,62,0.00,,---,0.14,VWS V14.00,2013-02-11 23:05:00,
2013-02-11 18:08:00,50.1,37.6,29.81,South,188,0.0,3.0,62,0.00,,---,0.14,VWS V14.00,2013-02-11 23:08:00,
2013-02-11 18:11:00,49.9,37.4,29.81,SSE,157,0.0,3.0,62,0.00,,---,0.14,VWS V14.00,2013-02-11 23:11:00,
2013-02-11 18:14:00,49.6,37.5,29.81,SSE,157,0.0,3.0,63,0.00,,---,0.14,VWS V14.00,2013-02-11 23:14:00,
2013-02-11 18:17:00,49.5,38.2,29.82,SSE,156,0.0,3.0,65,0.00,,---,0.14,VWS V14.00,2013-02-11 23:17:00,
2013-02-11 18:20:00,49.2,38.3,29.81,SSE,156,0.0,3.0,66,0.00,,---,0.14,VWS V14.00,2013-02-11 23:20:00,
2013-02-11 18:23:00,49.0,37.8,29.81,SSE,160,2.0,3.0,65,0.00,,---,0.14,VWS V14.00,2013-02-11 23:23:00,
2013-02-11 18:26:00,48.7,38.2,29.81,SSE,154,0.0,3.0,67,0.00,,---,0.14,VWS V14.00,2013-02-11 23:26:00,
2013-02-11 18:29:00,48.6,37.4,29.81,SSE,153,0.0,3.0,65,0.00,,---,0.14,VWS V14.00,2013-02-11 23:29:00,
2013-02-11 18:30:00,48.5,38.4,29.81,SSE,153,0.0,3.0,68,0.00,,---,0.14,VWS V14.00,2013-02-11 23:30:00,
2013-02-11 18:32:00,48.4,38.7,29.81,SSE,154,0.0,0.0,69,0.00,,---,0.14,VWS V14.00,2013-02-11 23:32:00,
2013-02-11 18:35:00,48.2,38.9,29.82,SSW,212,0.0,0.0,70,0.00,,---,0.14,VWS V14.00,2013-02-11 23:35:00,
2013-02-11 18:38:00,47.9,39.3,29.82,ESE,102,0.0,0.0,72,0.00,,---,0.14,VWS V14.00,2013-02-11 23:38:00,
2013-02-11 18:41:00,47.6,39.4,29.82,NE,49,0.0,2.0,73,0.00,,---,0.14,VWS V14.00,2013-02-11 23:41:00,
2013-02-11 18:44:00,47.4,39.2,29.82,NE,49,0.0,2.0,73,0.00,,---,0.14,VWS V14.00,2013-02-11 23:44:00,
2013-02-11 18:47:00,47.3,39.5,29.81,NE,49,0.0,2.0,74,0.00,,---,0.14,VWS V14.00,2013-02-11 23:47:00,
2013-02-11 18:50:00,47.1,39.2,29.81,ESE,108,1.0,2.0,74,0.00,,---,0.14,VWS V14.00,2013-02-11 23:50:00,
2013-02-11 18:53:00,46.9,38.7,29.81,South,169,0.0,2.0,73,0.00,,---,0.14,VWS V14.00,2013-02-11 23:53:00,
2013-02-11 18:56:00,46.8,38.6,29.81,South,169,0.0,2.0,73,0.00,,---,0.14,VWS V14.00,2013-02-11 23:56:00,
2013-02-11 18:59:00,46.6,38.8,29.81,South,169,0.0,2.0,74,0.00,,---,0.14,VWS V14.00,2013-02-11 23:59:00,
2013-02-11 19:00:00,46.6,38.8,29.81,South,169,0.0,2.0,74,0.00,,---,0.14,VWS V14.00,2013-02-12 00:00:00,
2013-02-11 19:02:00,46.5,38.7,29.81,South,169,0.0,0.0,74,0.00,,---,0.14,VWS V14.00,2013-02-12 00:02:00,
2013-02-11 19:05:00,46.3,38.8,29.81,South,169,0.0,0.0,75,0.00,,---,0.14,VWS V14.00,2013-02-12 00:05:00,
2013-02-11 19:08:00,46.1,38.3,29.81,South,169,0.0,0.0,74,0.00,,---,0.14,VWS V14.00,2013-02-12 00:08:00,
2013-02-11 19:11:00,46.0,38.9,29.81,South,170,0.0,0.0,76,0.00,,---,0.14,VWS V14.00,2013-02-12 00:11:00,
2013-02-11 19:14:00,45.8,38.3,29.81,South,169,0.0,1.0,75,0.00,,---,0.14,VWS V14.00,2013-02-12 00:14:00,
2013-02-11 19:17:00,45.6,38.2,29.81,SE,145,0.0,2.0,75,0.00,,---,0.14,VWS V14.00,2013-02-12 00:17:00,
2013-02-11 19:20:00,45.4,38.3,29.82,SSE,148,0.0,2.0,76,0.00,,---,0.14,VWS V14.00,2013-02-12 00:20:00,
2013-02-11 19:23:00,45.1,37.7,29.82,SE,146,0.0,2.0,75,0.00,,---,0.14,VWS V14.00,2013-02-12 00:23:00,
2013-02-11 19:26:00,44.9,37.5,29.82,SE,146,0.0,2.0,75,0.00,,---,0.14,VWS V14.00,2013-02-12 00:26:00,
2013-02-11 19:29:00,44.7,37.3,29.82,SE,146,0.0,2.0,75,0.00,,---,0.14,VWS V14.00,2013-02-12 00:29:00,
2013-02-11 19:30:00,44.7,37.6,29.82,SE,142,0.0,2.0,76,0.00,,---,0.14,VWS V14.00,2013-02-12 00:30:00,
2013-02-11 19:32:00,44.7,37.9,29.82,SE,139,0.0,0.0,77,0.00,,---,0.14,VWS V14.00,2013-02-12 00:32:00,
2013-02-11 19:35:00,44.5,38.1,29.82,NE,53,1.0,2.0,78,0.00,,---,0.14,VWS V14.00,2013-02-12 00:35:00,
2013-02-11 19:38:00,44.4,38.0,29.82,North,5,1.0,2.0,78,0.00,,---,0.14,VWS V14.00,2013-02-12 00:38:00,
2013-02-11 19:41:00,44.2,37.8,29.82,NE,34,0.0,2.0,78,0.00,,---,0.14,VWS V14.00,2013-02-12 00:41:00,
2013-02-11 19:44:00,43.9,37.5,29.81,NW,323,0.0,2.0,78,0.00,,---,0.14,VWS V14.00,2013-02-12 00:44:00,
2013-02-11 19:47:00,43.5,37.1,29.81,NW,323,0.0,2.0,78,0.00,,---,0.14,VWS V14.00,2013-02-12 00:47:00,
2013-02-11 19:50:00,43.3,37.6,29.81,WNW,298,0.0,2.0,80,0.00,,---,0.14,VWS V14.00,2013-02-12 00:50:00,
2013-02-11 19:53:00,42.9,37.5,29.81,NW,322,0.0,2.0,81,0.00,,---,0.14,VWS V14.00,2013-02-12 00:53:00,
2013-02-11 19:56:00,42.7,37.6,29.82,NW,321,0.0,2.0,82,0.00,,---,0.14,VWS V14.00,2013-02-12 00:56:00,
2013-02-11 19:59:00,42.5,37.4,29.82,NW,322,0.0,2.0,82,0.00,,---,0.14,VWS V14.00,2013-02-12 00:59:00,
2013-02-11 20:00:00,42.5,37.4,29.82,NW,322,0.0,2.0,82,0.00,,---,0.14,VWS V14.00,2013-02-12 01:00:00,
2013-02-11 20:02:00,42.4,37.3,29.82,WNW,294,0.0,0.0,82,0.00,,---,0.14,VWS V14.00,2013-02-12 01:02:00,
2013-02-11 20:05:00,42.3,37.5,29.82,WNW,295,0.0,0.0,83,0.00,,---,0.14,VWS V14.00,2013-02-12 01:05:00,
2013-02-11 20:08:00,42.2,37.4,29.82,WNW,295,0.0,0.0,83,0.00,,---,0.14,VWS V14.00,2013-02-12 01:08:00,
2013-02-11 20:11:00,42.2,37.7,29.82,NNE,22,0.0,2.0,84,0.00,,---,0.14,VWS V14.00,2013-02-12 01:11:00,
2013-02-11 20:14:00,42.1,37.3,29.82,NNE,23,1.0,2.0,83,0.00,,---,0.14,VWS V14.00,2013-02-12 01:14:00,
2013-02-11 20:17:00,42.2,37.1,29.82,NNE,23,1.0,2.0,82,0.00,,---,0.14,VWS V14.00,2013-02-12 01:17:00,
2013-02-11 20:20:00,42.1,37.0,29.82,NNE,23,0.0,2.0,82,0.00,,---,0.14,VWS V14.00,2013-02-12 01:20:00,
2013-02-11 20:23:00,42.0,36.9,29.82,NNE,23,0.0,2.0,82,0.00,,---,0.14,VWS V14.00,2013-02-12 01:23:00,
2013-02-11 20:26:00,41.9,37.1,29.82,NNW,335,0.0,2.0,83,0.00,,---,0.14,VWS V14.00,2013-02-12 01:26:00,
2013-02-11 20:29:00,41.7,36.9,29.82,NNW,334,0.0,2.0,83,0.00,,---,0.14,VWS V14.00,2013-02-12 01:29:00,
2013-02-11 20:30:00,41.7,36.9,29.82,NNW,334,0.0,2.0,83,0.00,,---,0.14,VWS V14.00,2013-02-12 01:30:00,
2013-02-11 20:32:00,41.6,36.8,29.82,NNW,334,0.0,0.0,83,0.00,,---,0.14,VWS V14.00,2013-02-12 01:32:00,
2013-02-11 20:35:00,41.5,37.0,29.82,NNW,334,0.0,1.0,84,0.00,,---,0.14,VWS V14.00,2013-02-12 01:35:00,
2013-02-11 20:38:00,41.6,37.1,29.82,NNW,334,0.0,1.0,84,0.00,,---,0.14,VWS V14.00,2013-02-12 01:38:00,
2013-02-11 20:41:00,41.7,37.2,29.82,NE,51,0.0,2.0,84,0.00,,---,0.14,VWS V14.00,2013-02-12 01:41:00,
2013-02-11 20:44:00,41.7,37.2,29.82,NW,312,1.0,3.0,84,0.00,,---,0.14,VWS V14.00,2013-02-12 01:44:00,
2013-02-11 20:47:00,42.1,37.0,29.83,NW,320,4.0,4.0,82,0.00,,---,0.14,VWS V14.00,2013-02-12 01:47:00,
2013-02-11 20:53:00,43.4,36.7,29.83,NNW,335,3.0,6.0,77,0.00,,---,0.14,VWS V14.00,2013-02-12 01:53:00,
2013-02-11 20:56:00,44.1,36.7,29.83,NW,317,4.0,7.0,75,0.00,,---,0.14,VWS V14.00,2013-02-12 01:56:00,
2013-02-11 20:59:00,44.5,37.1,29.82,North,10,6.0,7.0,75,0.00,,---,0.14,VWS V14.00,2013-02-12 01:59:00,
2013-02-11 21:00:00,44.5,37.1,29.82,NW,314,4.0,7.0,75,0.00,,---,0.14,VWS V14.00,2013-02-12 02:00:00,
2013-02-11 21:02:00,44.7,36.9,29.82,NW,323,3.0,5.0,74,0.00,,---,0.14,VWS V14.00,2013-02-12 02:02:00,
2013-02-11 21:05:00,44.8,37.0,29.82,NW,307,3.0,7.0,74,0.00,,---,0.14,VWS V14.00,2013-02-12 02:05:00,
2013-02-11 21:08:00,45.2,37.4,29.82,North,351,4.0,7.0,74,0.00,,---,0.14,VWS V14.00,2013-02-12 02:08:00,
2013-02-11 21:11:00,45.5,37.7,29.82,NW,311,1.0,7.0,74,0.00,,---,0.14,VWS V14.00,2013-02-12 02:11:00,
2013-02-11 21:14:00,45.9,38.1,29.81,NNW,343,3.0,9.0,74,0.00,,---,0.14,VWS V14.00,2013-02-12 02:14:00,
2013-02-11 21:15:00,42.9,36.8,29.83,NW,307,2.0,4.0,79,0.00,,---,0.14,VWS V14.00,2013-02-12 02:15:00,
2013-02-11 21:17:00,46.3,38.5,29.81,NNE,20,7.0,14.0,74,0.00,,---,0.14,VWS V14.00,2013-02-12 02:17:00,
2013-02-11 21:20:00,46.7,38.9,29.80,NW,318,7.0,14.0,74,0.00,,---,0.14,VWS V14.00,2013-02-12 02:20:00,
2013-02-11 21:29:00,47.4,38.8,29.81,NW,318,7.0,14.0,72,0.00,,---,0.14,VWS V14.00,2013-02-12 02:29:00,
2013-02-11 21:30:00,47.4,38.8,29.81,NNW,333,4.0,14.0,72,0.00,,---,0.14,VWS V14.00,2013-02-12 02:30:00,
2013-02-11 21:32:00,47.4,39.2,29.81,NW,307,2.0,11.0,73,0.00,,---,0.14,VWS V14.00,2013-02-12 02:32:00,
2013-02-11 21:35:00,47.3,39.5,29.81,NE,44,4.0,11.0,74,0.00,,---,0.14,VWS V14.00,2013-02-12 02:35:00,
2013-02-11 21:38:00,47.2,39.3,29.80,NE,54,6.0,12.0,74,0.00,,---,0.14,VWS V14.00,2013-02-12 02:38:00,
2013-02-11 21:41:00,47.1,39.2,29.81,NNW,340,9.0,12.0,74,0.00,,---,0.14,VWS V14.00,2013-02-12 02:41:00,
2013-02-11 21:44:00,47.0,39.2,29.81,North,5,4.0,12.0,74,0.00,,---,0.14,VWS V14.00,2013-02-12 02:44:00,
2013-02-11 21:47:00,47.0,39.2,29.81,North,352,6.0,12.0,74,0.00,,---,0.14,VWS V14.00,2013-02-12 02:47:00,
2013-02-11 21:48:00,47.0,38.8,29.81,North,356,13.0,14.0,73,0.00,,---,0.14,VWS V14.00,2013-02-12 02:48:00,
2013-02-11 21:50:00,46.9,39.4,29.81,NE,46,11.0,12.0,75,0.00,,---,0.14,VWS V14.00,2013-02-12 02:50:00,
2013-02-11 21:53:00,46.8,39.3,29.82,NE,39,7.0,12.0,75,0.00,,---,0.14,VWS V14.00,2013-02-12 02:53:00,
2013-02-11 21:56:00,46.7,39.5,29.82,NE,46,7.0,12.0,76,0.00,,---,0.14,VWS V14.00,2013-02-12 02:56:00,
2013-02-11 21:59:00,46.5,39.4,29.82,NE,45,9.0,12.0,76,0.00,,---,0.14,VWS V14.00,2013-02-12 02:59:00,
2013-02-11 22:00:00,46.6,39.5,29.82,NE,51,11.0,12.0,76,0.00,,---,0.14,VWS V14.00,2013-02-12 03:00:00,
2013-02-11 22:05:00,46.6,39.1,29.81,NNE,33,6.0,13.0,75,0.00,,---,0.14,VWS V14.00,2013-02-12 03:05:00,
2013-02-11 22:08:00,46.7,38.5,29.80,NNE,30,9.0,13.0,73,0.00,,---,0.14,VWS V14.00,2013-02-12 03:08:00,
2013-02-11 22:11:00,46.9,38.7,29.80,NE,54,9.0,13.0,73,0.00,,---,0.14,VWS V14.00,2013-02-12 03:11:00,
2013-02-11 22:14:00,46.9,38.7,29.81,NE,41,12.0,17.0,73,0.00,,---,0.14,VWS V14.00,2013-02-12 03:14:00,
2013-02-11 22:17:00,47.0,38.8,29.81,NE,49,8.0,17.0,73,0.00,,---,0.14,VWS V14.00,2013-02-12 03:17:00,
2013-02-11 22:23:00,46.8,39.0,29.80,NE,53,10.0,17.0,74,0.00,,---,0.14,VWS V14.00,2013-02-12 03:23:00,
2013-02-11 22:26:00,46.7,38.9,29.81,NE,47,4.0,17.0,74,0.00,,---,0.14,VWS V14.00,2013-02-12 03:26:00,
2013-02-11 22:27:00,46.6,39.1,29.82,NE,45,10.0,13.0,75,0.00,,---,0.14,VWS V14.00,2013-02-12 03:27:00,
2013-02-11 22:29:00,46.5,39.0,29.80,NNE,30,8.0,17.0,75,0.00,,---,0.14,VWS V14.00,2013-02-12 03:29:00,
2013-02-11 22:30:00,46.5,39.0,29.80,NNE,15,8.0,17.0,75,0.00,,---,0.14,VWS V14.00,2013-02-12 03:30:00,
2013-02-11 22:32:00,46.5,39.0,29.81,North,5,5.0,11.0,75,0.00,,---,0.14,VWS V14.00,2013-02-12 03:32:00,
2013-02-11 22:35:00,46.4,38.9,29.81,ENE,58,6.0,11.0,75,0.00,,---,0.14,VWS V14.00,2013-02-12 03:35:00,
2013-02-11 22:38:00,46.3,38.5,29.81,NNE,32,6.0,11.0,74,0.00,,---,0.14,VWS V14.00,2013-02-12 03:38:00,
2013-02-11 22:42:00,46.3,38.1,29.80,NNE,30,6.0,11.0,73,0.00,,---,0.14,VWS V14.00,2013-02-12 03:42:00,
2013-02-11 22:45:00,46.9,39.1,29.81,NNE,23,8.0,17.0,74,0.00,,---,0.14,VWS V14.00,2013-02-12 03:45:00,
2013-02-11 22:48:00,46.3,38.1,29.80,NE,49,6.0,11.0,73,0.00,,---,0.14,VWS V14.00,2013-02-12 03:48:00,
2013-02-11 22:51:00,46.4,38.2,29.80,NNE,31,4.0,11.0,73,0.00,,---,0.14,VWS V14.00,2013-02-12 03:51:00,
2013-02-11 22:54:00,46.3,38.1,29.81,NE,34,3.0,11.0,73,0.00,,---,0.14,VWS V14.00,2013-02-12 03:54:00,
2013-02-11 22:57:00,46.2,37.7,29.82,NNW,333,1.0,11.0,72,0.00,,---,0.14,VWS V14.00,2013-02-12 03:57:00,
2013-02-11 23:00:00,46.2,37.7,29.82,NW,307,2.0,11.0,72,0.00,,---,0.14,VWS V14.00,2013-02-12 04:00:00,
2013-02-11 23:03:00,46.1,36.9,29.82,East,89,1.0,3.0,70,0.00,,---,0.14,VWS V14.00,2013-02-12 04:03:00,
2013-02-11 23:06:00,46.2,37.0,29.81,ENE,77,6.0,6.0,70,0.00,,---,0.14,VWS V14.00,2013-02-12 04:06:00,
2013-02-11 23:09:00,46.4,36.8,29.81,ENE,60,5.0,6.0,69,0.00,,---,0.14,VWS V14.00,2013-02-12 04:09:00,
2013-02-11 23:12:00,46.5,36.2,29.82,NE,44,3.0,6.0,67,0.00,,---,0.14,VWS V14.00,2013-02-12 04:12:00,
2013-02-11 23:15:00,46.7,36.0,29.82,NE,51,3.0,6.0,66,0.00,,---,0.14,VWS V14.00,2013-02-12 04:15:00,
2013-02-11 23:18:00,46.7,36.0,29.83,NE,50,2.0,6.0,66,0.00,,---,0.14,VWS V14.00,2013-02-12 04:18:00,
2013-02-11 23:21:00,46.5,36.2,29.83,ENE,71,3.0,6.0,67,0.00,,---,0.14,VWS V14.00,2013-02-12 04:21:00,
2013-02-11 23:24:00,46.5,35.8,29.83,East,85,4.0,6.0,66,0.00,,---,0.14,VWS V14.00,2013-02-12 04:24:00,
2013-02-11 23:27:00,46.6,35.5,29.83,NE,47,5.0,6.0,65,0.00,,---,0.14,VWS V14.00,2013-02-12 04:27:00,
2013-02-11 23:30:00,46.7,36.0,29.84,East,79,3.0,6.0,66,0.00,,---,0.14,VWS V14.00,2013-02-12 04:30:00,
2013-02-11 23:33:00,46.6,35.1,29.83,ENE,72,3.0,6.0,64,0.00,,---,0.14,VWS V14.00,2013-02-12 04:33:00,
2013-02-11 23:36:00,46.5,35.8,29.83,East,98,2.0,6.0,66,0.00,,---,0.14,VWS V14.00,2013-02-12 04:36:00,
2013-02-11 23:39:00,46.3,35.6,29.83,ESE,113,1.0,6.0,66,0.00,,---,0.14,VWS V14.00,2013-02-12 04:39:00,
2013-02-11 23:42:00,46.1,35.4,29.83,SE,135,1.0,6.0,66,0.00,,---,0.14,VWS V14.00,2013-02-12 04:42:00,
2013-02-11 23:45:00,46.1,35.8,29.82,SE,142,0.0,6.0,67,0.00,,---,0.14,VWS V14.00,2013-02-12 04:45:00,
2013-02-11 23:48:00,45.9,35.2,29.83,North,1,0.0,6.0,66,0.00,,---,0.14,VWS V14.00,2013-02-12 04:48:00,
2013-02-11 23:51:00,45.7,35.0,29.83,NE,44,2.0,6.0,66,0.00,,---,0.14,VWS V14.00,2013-02-12 04:51:00,
2013-02-11 23:54:00,45.5,34.8,29.82,NE,56,1.0,6.0,66,0.00,,---,0.14,VWS V14.00,2013-02-12 04:54:00,
2013-02-11 23:57:00,45.5,34.8,29.82,NE,39,0.0,6.0,66,0.00,,---,0.14,VWS V14.00,2013-02-12 04:57:00,